M I D A S
Marine Information and Data Acquisition System
Tripno 341 of the Zeeleeuw from 2002-09-25 06:46:03 to 2002-09-25 12:56:14
Back to CruiseResearch ActivitiesStationsMapUnderway DataData graphs

EquipmentUnitsComment
TimeDGPSUTC
LatitudeDGPSDM.mWGS84
LongitudeDGPSDM.mWGS84
HeadingGyrodeg 
SOGDGPSknotsSpeed over ground
COGDGPSdegCourse over ground
DepthEcho soundermeters200 kHz
Missing or incorrect values are displayed as -999
Navigation data collected by the RV Zeeleeuw from 2002-09-25 06:46:03 to 2002-09-25 12:56:14
                                                                                    Next 1000 lines
Time Latitude Longitude Heading SOG COG Depth
2002-09-25 06:46:09 51°13.668 2°55.947 130.2   24.4 7.2
2002-09-25 06:46:14 51°13.668 2°55.947 130   30 7.2
2002-09-25 06:46:19 51°13.668 2°55.947 130   157.6 7.2
2002-09-25 06:46:23 51°13.668 2°55.947 130   151.9 7.2
2002-09-25 06:46:29 51°13.668 2°55.947 129.8   7.1 7.2
2002-09-25 06:46:34 51°13.668 2°55.947 129.8   314.6 7.1
2002-09-25 06:46:38 51°13.668 2°55.947 129.8   304.2 7.2
2002-09-25 06:46:42 51°13.668 2°55.947 130   136.9 7.1
2002-09-25 06:46:49 51°13.668 2°55.947 130   180.1 7.2
2002-09-25 06:46:55 51°13.668 2°55.947 130.2   79.8 7.2
2002-09-25 06:46:59 51°13.668 2°55.947 130.3   83.6 7.2
2002-09-25 06:47:04 51°13.668 2°55.947 130.7   59.8 7.2
2002-09-25 06:47:09 51°13.668 2°55.947 131   119.5 7.2
2002-09-25 06:47:14 51°13.668 2°55.947 131.2   70.9 7.2
2002-09-25 06:47:19 51°13.668 2°55.947 131.2   153.4 7.2
2002-09-25 06:47:23 51°13.668 2°55.947 131.2 0.1 41.2 7.2
2002-09-25 06:47:29 51°13.668 2°55.947 131 0.1 42.4 7.2
2002-09-25 06:47:34 51°13.668 2°55.947 131.2 0.1 48 7.2
2002-09-25 06:47:39 51°13.668 2°55.947 131.2   22 7.2
2002-09-25 06:47:43 51°13.669 2°55.947 131.3   354.9 7.2
2002-09-25 06:47:49 51°13.669 2°55.947 131.2   200.3 7.2
2002-09-25 06:47:54 51°13.669 2°55.947 131.3   14.9 7.2
2002-09-25 06:47:59 51°13.669 2°55.947 131.2   358.4 7.2
2002-09-25 06:48:04 51°13.669 2°55.947 131.2   43 7.2
2002-09-25 06:48:09 51°13.669 2°55.947 131.2   53 7.2
2002-09-25 06:48:14 51°13.669 2°55.947 131.2   51.5 7.2
2002-09-25 06:48:19 51°13.669 2°55.947 131   37.4 7.2
2002-09-25 06:48:23 51°13.669 2°55.947 131   30.3 7.2
2002-09-25 06:48:29 51°13.669 2°55.947 130.8   4.5 7.2
2002-09-25 06:48:34 51°13.669 2°55.947 130.8   1.1 7.3
2002-09-25 06:48:39 51°13.669 2°55.947 130.8   2.2 7.2
2002-09-25 06:48:44 51°13.669 2°55.947 130.8     7.2
2002-09-25 06:48:49 51°13.669 2°55.947 130.8   13.2 7.1
2002-09-25 06:48:54 51°13.669 2°55.947 130.7   19.7 7.2
2002-09-25 06:48:59 51°13.669 2°55.947 130.7   34.6 7.2
2002-09-25 06:49:04 51°13.669 2°55.947 130.7   39.1 7.2
2002-09-25 06:49:09 51°13.669 2°55.947 130.5   47.7 7.2
2002-09-25 06:49:14 51°13.669 2°55.947 130.5   51.5 7.2
2002-09-25 06:49:19 51°13.669 2°55.947 130.7   9 7.2
2002-09-25 06:49:24 51°13.669 2°55.947 130.7   346.3 7.2
2002-09-25 06:49:29 51°13.669 2°55.947 130.8   12 7.2
2002-09-25 06:49:35 51°13.669 2°55.947 131   20.6 7.2
2002-09-25 06:49:39 51°13.669 2°55.947 131.2   149.4 7.2
2002-09-25 06:49:45 51°13.669 2°55.947 131.2   150.2 7.2
2002-09-25 06:49:49 51°13.669 2°55.947 131.2   337.5 7.2
2002-09-25 06:49:53 51°13.669 2°55.947 131.2   318.8 7.3
2002-09-25 06:49:59 51°13.669 2°55.947 131.2   319.7 7.2
2002-09-25 06:50:04 51°13.669 2°55.947 131.3   335.7 7.3
2002-09-25 06:50:09 51°13.669 2°55.947 131.3   284.1 7.3
2002-09-25 06:50:14 51°13.669 2°55.947 131.5   278.4 7.2
2002-09-25 06:50:19 51°13.668 2°55.947 131.7   287.1 7.2
2002-09-25 06:50:25 51°13.668 2°55.947 131.8   306.6 7.2
2002-09-25 06:50:28 51°13.669 2°55.947 131.7   11.6 7.2
2002-09-25 06:50:35 51°13.668 2°55.947 131.5   12.6 7.2
2002-09-25 06:50:39 51°13.668 2°55.947 131.3   51.9 7.2
2002-09-25 06:50:43 51°13.669 2°55.947 131.2   50.9 7.2
2002-09-25 06:50:49 51°13.668 2°55.947 131   41.5 7.2
2002-09-25 06:50:54 51°13.668 2°55.947 130.8   3.2 7.2
2002-09-25 06:50:58 51°13.668 2°55.947 131   280.1 7.2
2002-09-25 06:51:04 51°13.668 2°55.947 131.2   203.5 7.2
2002-09-25 06:51:09 51°13.668 2°55.947 131.5   256.5 7.2
2002-09-25 06:51:14 51°13.668 2°55.947 131.7   223.3 7.2
2002-09-25 06:51:19 51°13.668 2°55.947 131.7   247.3 7.2
2002-09-25 06:51:24 51°13.668 2°55.947 131.8   291.3 7.2
2002-09-25 06:51:29 51°13.668 2°55.947 131.8   312 7.2
2002-09-25 06:51:34 51°13.668 2°55.947 131.8   343.1 7.2
2002-09-25 06:51:39 51°13.668 2°55.947 131.7   17.5 7.2
2002-09-25 06:51:43 51°13.668 2°55.947 131.5   165.6 7.1
2002-09-25 06:51:50 51°13.668 2°55.947 131.7   202 7.1
2002-09-25 06:51:54 51°13.668 2°55.947 131.7   179.1 7.1
2002-09-25 06:51:59 51°13.668 2°55.947 131.8   158.8 7.2
2002-09-25 06:52:05 51°13.668 2°55.947 131.8   129.8 7.2
2002-09-25 06:52:09 51°13.668 2°55.947 131.7   324.6 7.2
2002-09-25 06:52:15 51°13.668 2°55.947 131.8   295.8 7.2
2002-09-25 06:52:19 51°13.668 2°55.947 131.8   334.1 7.2
2002-09-25 06:52:24 51°13.668 2°55.947 132   346.4 7.2
2002-09-25 06:52:29 51°13.668 2°55.947 132   55.8 7.2
2002-09-25 06:52:34 51°13.668 2°55.947 131.8   18.4 7.2
2002-09-25 06:52:39 51°13.668 2°55.947 131.7   320.2 7.2
2002-09-25 06:52:42 51°13.668 2°55.947 131.7 0.1 319 7.2
2002-09-25 06:52:49 51°13.668 2°55.947 131.8 0.1 324 7.2
2002-09-25 06:52:54 51°13.668 2°55.947 131.7   170.6 7.2
2002-09-25 06:52:58 51°13.668 2°55.948 131.5   146.9 7.2
2002-09-25 06:53:03 51°13.668 2°55.947 131.3   154.4 7.2
2002-09-25 06:53:09 51°13.668 2°55.947 131.3   264.2 7.2
2002-09-25 06:53:14 51°13.669 2°55.946 131.3   296.6 7.2
2002-09-25 06:53:19 51°13.669 2°55.946 131.2   278.6 7.2
2002-09-25 06:53:23 51°13.669 2°55.946 131.2   275.7 7.2
2002-09-25 06:53:30 51°13.669 2°55.946 131.2   280.4 7.2
2002-09-25 06:53:34 51°13.669 2°55.946 131.3   288.7 7.2
2002-09-25 06:53:39 51°13.669 2°55.946 131.2   303.9 7.2
2002-09-25 06:53:44 51°13.669 2°55.946 131.2   26.8 7.1
2002-09-25 06:53:50 51°13.669 2°55.947 131   334.1 7.2
2002-09-25 06:53:55 51°13.668 2°55.947 131   339.7 7.2
2002-09-25 06:53:59 51°13.668 2°55.947 131   315.6 7.2
2002-09-25 06:54:05 51°13.668 2°55.947 131.2   309.5 7.2
2002-09-25 06:54:10 51°13.668 2°55.947 131   116.6 7.2
2002-09-25 06:54:15 51°13.668 2°55.947 130.8   130.1 7.2
2002-09-25 06:54:19 51°13.668 2°55.947 130.8   255.5 7.2
2002-09-25 06:54:24 51°13.668 2°55.947 130.7   303.9 7.2
2002-09-25 06:54:29 51°13.668 2°55.947 130.7   217.2 7.2
2002-09-25 06:54:34 51°13.667 2°55.947 130.5   180 7.2
2002-09-25 06:54:39 51°13.667 2°55.947 130.5   211.9 7.1
2002-09-25 06:54:45 51°13.667 2°55.947 130.5   253.4 7.2
2002-09-25 06:54:49 51°13.667 2°55.947 130.5   293.7 7.1
2002-09-25 06:54:54 51°13.667 2°55.947 130.3   313.9 7.1
2002-09-25 06:54:59 51°13.667 2°55.948 130.2   334.5 7.1
2002-09-25 06:55:03 51°13.667 2°55.948 130   354 7.1
2002-09-25 06:55:09 51°13.667 2°55.948 129.7   343.6 7.1
2002-09-25 06:55:15 51°13.667 2°55.948 129.5   345.3 7.1
2002-09-25 06:55:19 51°13.667 2°55.948 129.2   326.3 7.1
2002-09-25 06:55:23 51°13.667 2°55.948 129   319.7 7.1
2002-09-25 06:55:29 51°13.667 2°55.948 128.8   336.5 7.1
2002-09-25 06:55:34 51°13.668 2°55.948 128.7   325.6 7.1
2002-09-25 06:55:39 51°13.668 2°55.948 128.7   285.9 7.2
2002-09-25 06:55:45 51°13.668 2°55.948 128.8   277.9 7.2
2002-09-25 06:55:50 51°13.668 2°55.948 128.8   6 7.2
2002-09-25 06:55:54 51°13.668 2°55.948 128.8   10.4 7.2
2002-09-25 06:55:59 51°13.667 2°55.948 128.7   271.1 7.1
2002-09-25 06:56:03 51°13.667 2°55.948 128.7   223.3 7.1
2002-09-25 06:56:09 51°13.667 2°55.948 128.8   181.6 7.1
2002-09-25 06:56:14 51°13.667 2°55.948 129   158.7 7.1
2002-09-25 06:56:19 51°13.667 2°55.948 129.3   127.8 7.1
2002-09-25 06:56:24 51°13.667 2°55.948 129.7 0.1 160.8 7.2
2002-09-25 06:56:29 51°13.667 2°55.948 130.3   157.4 7.2
2002-09-25 06:56:34 51°13.667 2°55.948 130.8   154.5 7.1
2002-09-25 06:56:38 51°13.667 2°55.948 131.2   28.4 7.1
2002-09-25 06:56:43 51°13.667 2°55.948 131.2   24.3 7.1
2002-09-25 06:56:49 51°13.667 2°55.948 131   32.1 7.2
2002-09-25 06:56:54 51°13.667 2°55.948 131.2   38.2 7.2
2002-09-25 06:56:59 51°13.667 2°55.948 131.2   26.2 7.2
2002-09-25 06:57:03 51°13.668 2°55.948 131.5   20.6 7.1
2002-09-25 06:57:09 51°13.668 2°55.948 131.7   292.4 7.1
2002-09-25 06:57:14 51°13.668 2°55.948 131.8   293.8 7.1
2002-09-25 06:57:18 51°13.668 2°55.948 132   349.6 7.1
2002-09-25 06:57:23 51°13.668 2°55.948 131.8   5.5 7.2
2002-09-25 06:57:29 51°13.668 2°55.948 131.8   358.9 7.2
2002-09-25 06:57:34 51°13.668 2°55.948 131.7   299.2 7.1
2002-09-25 06:57:39 51°13.667 2°55.948 131.8   248.9 7.1
2002-09-25 06:57:43 51°13.667 2°55.948 132   231.4 7.1
2002-09-25 06:57:49 51°13.667 2°55.948 132   331.1 7.2
2002-09-25 06:57:55 51°13.667 2°55.948 132   350.9 7.2
2002-09-25 06:57:59 51°13.667 2°55.948 131.8   6.7 7.2
2002-09-25 06:58:03 51°13.667 2°55.948 131.8   181.1 7.1
2002-09-25 06:58:09 51°13.667 2°55.948 131.8   291.3 7.1
2002-09-25 06:58:14 51°13.667 2°55.948 132   322 7.1
2002-09-25 06:58:19 51°13.667 2°55.947 131.8   338.1 7.1
2002-09-25 06:58:25 51°13.667 2°55.947 131.8   302.2 7.1
2002-09-25 06:58:30 51°13.667 2°55.947 132   255.3 7.1
2002-09-25 06:58:35 51°13.667 2°55.947 132.2   237.7 7.1
2002-09-25 06:58:39 51°13.667 2°55.947 132.2   264.8 7.1
2002-09-25 06:58:45 51°13.667 2°55.947 132.2   321.9 7.1
2002-09-25 06:58:49 51°13.667 2°55.947 132.2   6.8 7.1
2002-09-25 06:58:54 51°13.667 2°55.947 132   32.4 7.1
2002-09-25 06:58:59 51°13.668 2°55.947 131.8 0.1 21.4 7.1
2002-09-25 06:59:04 51°13.668 2°55.948 131.7 0.1 5.7 7.1
2002-09-25 06:59:09 51°13.668 2°55.948 131.7   352.1 7.1
2002-09-25 06:59:14 51°13.668 2°55.948 131.8 0.1 6.3 7.1
2002-09-25 06:59:18 51°13.667 2°55.948 131.3   70.7 7.1
2002-09-25 06:59:25 51°13.667 2°55.948 130.3   103 7.1
2002-09-25 06:59:27 51°13.667 2°55.948 128.8 0.1 156.7 7.1
2002-09-25 06:59:34 51°13.667 2°55.948 127.7   186.1 7.1
2002-09-25 06:59:39 51°13.667 2°55.947 126.8   244.1 7.1
2002-09-25 06:59:45 51°13.667 2°55.947 125.7   274.3 7.1
2002-09-25 06:59:49 51°13.667 2°55.947 124.8   238.7 7.1
2002-09-25 06:59:55 51°13.667 2°55.947 123.8   220.5 7.1
2002-09-25 06:59:59 51°13.667 2°55.947 123   202.9 7.2
2002-09-25 07:00:04 51°13.667 2°55.947 122   206.1 7.1
2002-09-25 07:00:08 51°13.666 2°55.947 121 0.1 209.2 7.1
2002-09-25 07:00:14 51°13.666 2°55.947 120   206 7.1
2002-09-25 07:00:18 51°13.666 2°55.947 119 0.1 183.2 7.1
2002-09-25 07:00:25 51°13.666 2°55.947 118 0.1 203.2 7.1
2002-09-25 07:00:30 51°13.666 2°55.947 117.2 0.1 210.2 7.1
2002-09-25 07:00:34 51°13.666 2°55.947 116.3 0.1 212 7.1
2002-09-25 07:00:39 51°13.666 2°55.947 115.3 0.1 213.9 7.1
2002-09-25 07:00:43 51°13.666 2°55.946 114.3 0.1 204.3 7.1
2002-09-25 07:00:48 51°13.666 2°55.946 113.5 0.1 200.4 7.1
2002-09-25 07:00:54 51°13.665 2°55.946 112.7 0.1 205.1 7.1
2002-09-25 07:00:59 51°13.665 2°55.946 111.5 0.1 204.5 7.2
2002-09-25 07:01:03 51°13.665 2°55.946 110.5 0.1 232.5 7.1
2002-09-25 07:01:09 51°13.665 2°55.946 109.8 0.1 275.4 7.1
2002-09-25 07:01:14 51°13.665 2°55.945 109.2 0.3 286.8 7.1
2002-09-25 07:01:18 51°13.666 2°55.944 108.3 0.5 286.7 7.1
2002-09-25 07:01:24 51°13.666 2°55.942 107.8 0.7 286.5 7.1
2002-09-25 07:01:29 51°13.667 2°55.94 107.5 1 286.4 7.2
2002-09-25 07:01:34 51°13.667 2°55.937 107.3 1.2 286 7.2
2002-09-25 07:01:39 51°13.668 2°55.934 107.3 1.4 286.5 -999
2002-09-25 07:01:45 51°13.668 2°55.929 106.8 1.6 285.8 -999
2002-09-25 07:01:50 51°13.669 2°55.925 106.2 1.8 285.9 -999
2002-09-25 07:01:55 51°13.67 2°55.921 105.5 2 285.3 -999
2002-09-25 07:01:59 51°13.67 2°55.917 104.8 2.2 284.4 -999
2002-09-25 07:02:06 51°13.671 2°55.91 104.2 2.3 283.5 -999
2002-09-25 07:02:10 51°13.672 2°55.906 103.7 2.4 282.2 -999
2002-09-25 07:02:15 51°13.672 2°55.9 103.5 2.6 281.1 -999
2002-09-25 07:02:20 51°13.673 2°55.894 103.3 2.7 280.8 -999
2002-09-25 07:02:25 51°13.674 2°55.888 103.2 2.8 279.9 -999
2002-09-25 07:02:30 51°13.674 2°55.882 102.8 2.9 279.2 -999
2002-09-25 07:02:35 51°13.675 2°55.875 102.7 2.9 278.4 -999
2002-09-25 07:02:40 51°13.675 2°55.869 102.3 3 278 -999
2002-09-25 07:02:46 51°13.676 2°55.861 102.5 3 277.6 -999
2002-09-25 07:02:50 51°13.676 2°55.855 102.8 3.2 277.5 -999
2002-09-25 07:02:55 51°13.677 2°55.848 103.3 3.3 277.9 -999
2002-09-25 07:02:59 51°13.678 2°55.842 104 3.5 278.9 -999
2002-09-25 07:03:05 51°13.679 2°55.832 104.8 3.6 279.6 -999
2002-09-25 07:03:10 51°13.68 2°55.824 105.8 3.7 280.5 -999
2002-09-25 07:03:15 51°13.681 2°55.816 106.8 3.7 281.7 -999
2002-09-25 07:03:19 51°13.682 2°55.81 108.2 3.6 282.8 -999
2002-09-25 07:03:25 51°13.683 2°55.802 109.3 3.4 283.9 -999
2002-09-25 07:03:30 51°13.684 2°55.795 110.7 3.3 284.5 10
2002-09-25 07:03:35 51°13.685 2°55.79 111.2 2.9 284.9 10.6
2002-09-25 07:03:39 51°13.685 2°55.788 110.8 2.1 284.3 11
2002-09-25 07:03:43 51°13.685 2°55.787 108.2 1 280.5 11.2
2002-09-25 07:03:49 51°13.685 2°55.788 103.2 0.1 308.8 10.9
2002-09-25 07:03:54 51°13.685 2°55.79 97.2 0.7 95.3 10.6
2002-09-25 07:03:59 51°13.685 2°55.794 89.3 1.4 87.8 10.2
2002-09-25 07:04:04 51°13.686 2°55.799 81.8 1.9 81.1 10
2002-09-25 07:04:09 51°13.687 2°55.802 76.7 1.9 75.6 10.1
2002-09-25 07:04:14 51°13.687 2°55.806 74.3 1.7 74.1 9.7
2002-09-25 07:04:19 51°13.688 2°55.808 72.7 1.3 74.6 9.4
2002-09-25 07:04:23 51°13.688 2°55.809 71 0.9 80 9.4
2002-09-25 07:04:29 51°13.687 2°55.809 69.8 0.2 127.5 9.3
2002-09-25 07:04:34 51°13.687 2°55.808 69.7 0.5 220.6 9.5
2002-09-25 07:04:39 51°13.686 2°55.805 70.3 0.9 231.8 9.5
2002-09-25 07:04:44 51°13.684 2°55.802 71.7 1.3 236.7 9.8
2002-09-25 07:04:49 51°13.683 2°55.798 72.8 1.8 241.4 9.9
2002-09-25 07:04:55 51°13.682 2°55.793 74.3 2.1 244.5 -999
2002-09-25 07:04:59 51°13.68 2°55.79 75.7 2.1 245.5 -999
2002-09-25 07:05:06 51°13.679 2°55.785 76.5 2 247.5 -999
2002-09-25 07:05:10 51°13.679 2°55.783 76.5 1.5 247.6 -999
2002-09-25 07:05:15 51°13.678 2°55.784 72.5 0.5 233.3 -999
2002-09-25 07:05:20 51°13.679 2°55.786 67.8 0.4 76.2 10.7
2002-09-25 07:05:25 51°13.68 2°55.79 62.3 1.3 66 -999
2002-09-25 07:05:30 51°13.682 2°55.794 54.5 1.9 57.6 -999
2002-09-25 07:05:35 51°13.684 2°55.798 47.2 2.3 51.6 -999
2002-09-25 07:05:40 51°13.686 2°55.801 42.2 2.3 45.7 7.7
2002-09-25 07:05:45 51°13.689 2°55.804 39.3 2.2 42.6 -999
2002-09-25 07:05:50 51°13.691 2°55.807 37.3 2.1 39.4 -999
2002-09-25 07:05:55 51°13.692 2°55.809 36.3 1.8 37.1 -999
2002-09-25 07:06:00 51°13.694 2°55.811 34.7 1.5 37.7 -999
2002-09-25 07:06:05 51°13.695 2°55.812 33.5 1 39.3 6.1
2002-09-25 07:06:10 51°13.695 2°55.812 32.7 0.6 44.3 5.4
2002-09-25 07:06:13 51°13.694 2°55.812 32.3 0.2 71.4 5.3
2002-09-25 07:06:19 51°13.693 2°55.811 32.8 0.7 202.2 -999
2002-09-25 07:06:25 51°13.691 2°55.809 33.7 1.3 205.9 9.7
2002-09-25 07:06:30 51°13.688 2°55.807 34.7 1.6 208.2 -999
2002-09-25 07:06:35 51°13.686 2°55.805 36.3 1.7 210.1 -999
2002-09-25 07:06:39 51°13.685 2°55.804 37.8 1.6 212.3 -999
2002-09-25 07:06:46 51°13.683 2°55.803 38.5 1.2 211.2 -999
2002-09-25 07:06:50 51°13.683 2°55.802 36.8 0.7 210.1 -999
2002-09-25 07:06:55 51°13.683 2°55.803 34.2 0.1 188.9 -999
2002-09-25 07:07:00 51°13.684 2°55.803 30 0.5 25.3 -999
2002-09-25 07:07:05 51°13.686 2°55.805 24.8 1 24 -999
2002-09-25 07:07:10 51°13.689 2°55.806 19 1.5 19.7 -999
2002-09-25 07:07:15 51°13.692 2°55.807 12.7 1.9 17.2 -999
2002-09-25 07:07:20 51°13.694 2°55.807 8.7 2 11.6 -999
2002-09-25 07:07:25 51°13.696 2°55.808 7 1.8 8.9 -999
2002-09-25 07:07:30 51°13.698 2°55.808 5 1.4 7.7 -999
2002-09-25 07:07:35 51°13.698 2°55.809 3.2 0.8 11.4 -999
2002-09-25 07:07:39 51°13.698 2°55.809 2 0.4 17.9 -999
2002-09-25 07:07:45 51°13.698 2°55.809 1.7 0.2 90.1 9.9
2002-09-25 07:07:50 51°13.697 2°55.809 1.7 0.3 157.8 9.9
2002-09-25 07:07:55 51°13.696 2°55.809 1.8 0.6 168.9 9.5
2002-09-25 07:07:59 51°13.695 2°55.809 2.2 0.7 171.8 9.9
2002-09-25 07:08:02 51°13.694 2°55.81 2.8 0.7 171.2 9.9
2002-09-25 07:08:10 51°13.695 2°55.81 2.5 0.2 169.9 -999
2002-09-25 07:08:15 51°13.697 2°55.809 356.8 0.9 356.6 -999
2002-09-25 07:08:20 51°13.699 2°55.809 350.7 1.5 351.6 9.7
2002-09-25 07:08:25 51°13.701 2°55.807 345.5 1.7 345.9 9.9
2002-09-25 07:08:29 51°13.702 2°55.807 342.3 1.4 343.6 9.9
2002-09-25 07:08:34 51°13.703 2°55.807 339.3 0.8 349.5 9.8
2002-09-25 07:08:39 51°13.702 2°55.807 336.7 0.1 63.9 9.9
2002-09-25 07:08:45 51°13.701 2°55.809 335.3 0.8 147 -999
2002-09-25 07:08:50 51°13.699 2°55.811 334.2 1.4 147.7 -999
2002-09-25 07:08:55 51°13.696 2°55.814 333.3 1.9 148.7 -999
2002-09-25 07:08:59 51°13.694 2°55.817 332.7 2.5 148.2 -999
2002-09-25 07:09:06 51°13.689 2°55.821 332.2 2.8 149 -999
2002-09-25 07:09:10 51°13.686 2°55.824 332.2 3 148 -999
2002-09-25 07:09:15 51°13.682 2°55.827 331.8 3.1 149.1 -999
2002-09-25 07:09:19 51°13.679 2°55.83 332.3 3 148.9 -999
2002-09-25 07:09:25 51°13.675 2°55.834 332.5 2.8 150.2 -999
2002-09-25 07:09:30 51°13.673 2°55.836 332.2 2.4 148.9 -999
2002-09-25 07:09:35 51°13.671 2°55.838 331 1.8 151.1 -999
2002-09-25 07:09:39 51°13.671 2°55.838 329.2 1 156.7 -999
2002-09-25 07:09:45 51°13.671 2°55.836 325.8 0.3 199.6 9.4
2002-09-25 07:09:50 51°13.672 2°55.834 322 0.8 303.4 9.4
2002-09-25 07:09:54 51°13.674 2°55.831 317.2 1.8 310.6 -999
2002-09-25 07:10:00 51°13.677 2°55.825 313.8 2.6 309 -999
2002-09-25 07:10:05 51°13.68 2°55.819 312.8 3.1 309.2 8.6
2002-09-25 07:10:09 51°13.683 2°55.813 312.8 3.5 308.8 9
2002-09-25 07:10:15 51°13.687 2°55.805 313.2 3.8 309.4 9.2
2002-09-25 07:10:19 51°13.691 2°55.798 313.7 4.2 309.3 10.7
2002-09-25 07:10:23 51°13.694 2°55.792 314.5 4.5 310.1 11.1
2002-09-25 07:10:29 51°13.699 2°55.782 314.7 4.9 310.2 12
2002-09-25 07:10:34 51°13.704 2°55.773 314 5.1 309.7 12.5
2002-09-25 07:10:39 51°13.708 2°55.763 312.8 5.4 308.1 12.5
2002-09-25 07:10:44 51°13.713 2°55.753 312.3 5.6 307 12.2
2002-09-25 07:10:50 51°13.719 2°55.74 312.7 5.8 306.9 10.8
2002-09-25 07:10:54 51°13.723 2°55.732 315 6 307.6 9.7
2002-09-25 07:10:59 51°13.729 2°55.722 318.8 6.2 310.9 9.1
2002-09-25 07:11:03 51°13.734 2°55.714 321 6.3 314.2 9.9
2002-09-25 07:11:09 51°13.742 2°55.703 323 6.4 316.8 9.8
2002-09-25 07:11:15 51°13.751 2°55.691 324.2 6.5 318.2 9
2002-09-25 07:11:19 51°13.757 2°55.683 325.3 6.6 319.6 9.4
2002-09-25 07:11:23 51°13.763 2°55.676 326.8 6.7 321.1 9.7
2002-09-25 07:11:29 51°13.772 2°55.665 328.5 6.7 322.5 9.8
2002-09-25 07:11:34 51°13.78 2°55.656 330.3 6.8 324.5 10
2002-09-25 07:11:38 51°13.786 2°55.65 332.2 6.9 326.4 9.8
2002-09-25 07:11:44 51°13.796 2°55.641 334.3 7 328.6 9.9
2002-09-25 07:11:49 51°13.805 2°55.633 336.7 7 330.8 9.7
2002-09-25 07:11:54 51°13.813 2°55.626 338.8 7.1 332.8 9.5
2002-09-25 07:11:59 51°13.822 2°55.62 340.8 7.1 334.9 9.4
2002-09-25 07:12:03 51°13.83 2°55.615 342.3 7.2 336.1 9
2002-09-25 07:12:09 51°13.84 2°55.608 343.5 7.2 337.8 8.9
2002-09-25 07:12:14 51°13.85 2°55.602 344.2 7.2 338.6 9.1
2002-09-25 07:12:19 51°13.859 2°55.596 344.3 7.3 339.3 9.3
2002-09-25 07:12:25 51°13.871 2°55.59 344.5 7.3 339.6 9.5
2002-09-25 07:12:29 51°13.878 2°55.585 344.5 7.3 339.8 9.9
2002-09-25 07:12:35 51°13.89 2°55.578 344.2 7.4 339.6 9
2002-09-25 07:12:40 51°13.9 2°55.573 344 7.4 339.8 9.6
2002-09-25 07:12:44 51°13.907 2°55.568 344.3 7.4 339.7 9.7
2002-09-25 07:12:49 51°13.917 2°55.563 344.5 7.5 340.2 9.6
2002-09-25 07:12:54 51°13.927 2°55.557 344.3 7.5 340.1 9.7
2002-09-25 07:12:59 51°13.936 2°55.552 344 7.5 340.2 9.9
2002-09-25 07:13:05 51°13.948 2°55.545 343.8 7.5 339.8 9.6
2002-09-25 07:13:09 51°13.956 2°55.54 343.7 7.5 339.9 9.7
2002-09-25 07:13:15 51°13.967 2°55.533 343 7.5 339.4 9.9
2002-09-25 07:13:19 51°13.975 2°55.529 342.2 7.4 339 9.7
2002-09-25 07:13:23 51°13.982 2°55.524 341.2 7.4 337.7 9.6
2002-09-25 07:13:29 51°13.994 2°55.515 341.2 7.4 336.8 9.5
2002-09-25 07:13:34 51°14.003 2°55.509 340.7 7.4 336 9.5
2002-09-25 07:13:39 51°14.012 2°55.502 340.5 7.4 335.3 9.5
2002-09-25 07:13:42 51°14.018 2°55.498 340.7 7.4 335.4 9.7
2002-09-25 07:13:49 51°14.031 2°55.488 340.7 7.4 335.8 9.5
2002-09-25 07:13:54 51°14.041 2°55.482 340.3 7.5 336 9.8
2002-09-25 07:13:58 51°14.048 2°55.476 340 7.5 335.7 9.7
2002-09-25 07:14:03 51°14.058 2°55.469 339.5 7.5 335.6 9.7
2002-09-25 07:14:09 51°14.069 2°55.461 339 7.5 335 9.5
2002-09-25 07:14:14 51°14.078 2°55.454 338.8 7.5 334.4 9.4
2002-09-25 07:14:19 51°14.087 2°55.447 338.3 7.5 334 9.1
2002-09-25 07:14:23 51°14.094 2°55.441 337.3 7.5 333.4 9.5
2002-09-25 07:14:29 51°14.105 2°55.432 336.8 7.5 332.8 9.5
2002-09-25 07:14:34 51°14.115 2°55.424 337.2 7.5 332.8 9.2
2002-09-25 07:14:39 51°14.124 2°55.417 337.2 7.5 333 9.2
2002-09-25 07:14:45 51°14.135 2°55.407 336.3 7.5 332.4 9.1
2002-09-25 07:14:49 51°14.142 2°55.401 335.2 7.5 331.7 9.3
2002-09-25 07:14:54 51°14.151 2°55.392 334 7.5 330.3 9.4
2002-09-25 07:14:59 51°14.16 2°55.384 333.5 7.5 329.3 9.3
2002-09-25 07:15:05 51°14.17 2°55.373 332.5 7.5 328.4 9.4
2002-09-25 07:15:09 51°14.177 2°55.366 331 7.5 327.1 9.5
2002-09-25 07:15:14 51°14.185 2°55.356 329.3 7.5 325.9 9.4
2002-09-25 07:15:19 51°14.194 2°55.347 327.8 7.5 324.2 9.4
2002-09-25 07:15:25 51°14.204 2°55.334 326.7 7.5 323.4 9.5
2002-09-25 07:15:29 51°14.21 2°55.326 325.2 7.5 321.6 9.5
2002-09-25 07:15:34 51°14.218 2°55.315 323.3 7.5 320.2 9.5
2002-09-25 07:15:39 51°14.226 2°55.304 322.5 7.5 319 9.5
2002-09-25 07:15:44 51°14.234 2°55.293 321.8 7.6 318.3 9.5
2002-09-25 07:15:49 51°14.241 2°55.281 321.2 7.6 317.6 9.4
2002-09-25 07:15:54 51°14.249 2°55.27 320.3 7.5 316.8 9.5
2002-09-25 07:15:59 51°14.256 2°55.258 319.3 7.5 316.1 9.3
2002-09-25 07:16:05 51°14.265 2°55.244 318.5 7.6 315.1 9.5
2002-09-25 07:16:09 51°14.271 2°55.234 317.7 7.6 314.3 9.6
2002-09-25 07:16:15 51°14.28 2°55.219 316.7 7.6 313.3 9.5
2002-09-25 07:16:19 51°14.285 2°55.209 315.8 7.6 312.3 9.6
2002-09-25 07:16:23 51°14.291 2°55.199 315 7.6 311.6 9.7
2002-09-25 07:16:29 51°14.299 2°55.183 314.3 7.6 310.3 9.5
2002-09-25 07:16:34 51°14.305 2°55.17 314 7.6 309.8 9.4
2002-09-25 07:16:39 51°14.312 2°55.158 314.5 7.5 310 9.6
2002-09-25 07:16:42 51°14.316 2°55.15 314.2 7.5 310 9.5
2002-09-25 07:16:49 51°14.325 2°55.132 314.2 7.5 309.8 9.4
2002-09-25 07:16:54 51°14.332 2°55.119 314.2 7.5 309 9.5
2002-09-25 07:16:59 51°14.338 2°55.106 313.8 7.5 308.4 9.4
2002-09-25 07:17:03 51°14.343 2°55.096 314.2 7.5 307.7 9.4
2002-09-25 07:17:09 51°14.351 2°55.08 314.2 7.5 307.2 10
2002-09-25 07:17:14 51°14.357 2°55.066 312.8 7.5 306.4 9.9
2002-09-25 07:17:19 51°14.363 2°55.052 311.8 7.5 304.6 9.6
2002-09-25 07:17:24 51°14.368 2°55.038 310.7 7.5 303 9.5
2002-09-25 07:17:29 51°14.374 2°55.023 308.7 7.7 301 9.3
2002-09-25 07:17:34 51°14.378 2°55.007 303.8 7.9 297.8 9.2
2002-09-25 07:17:39 51°14.382 2°54.99 297.8 8.1 292.7 9.2
2002-09-25 07:17:45 51°14.385 2°54.968 291.3 8.3 285.9 9
2002-09-25 07:17:50 51°14.386 2°54.949 286.3 8.6 280.3 9
2002-09-25 07:17:54 51°14.387 2°54.933 281.8 8.9 275.7 9
2002-09-25 07:17:59 51°14.387 2°54.912 279.2 9.2 273 9.1
2002-09-25 07:18:04 51°14.387 2°54.89 276 9.7 269.7 9
2002-09-25 07:18:09 51°14.387 2°54.867 276.3 10.1 268.8 9
2002-09-25 07:18:14 51°14.386 2°54.844 276.3 10.4 268.5 8.9
2002-09-25 07:18:19 51°14.386 2°54.82 276.2 10.7 268.7 8.8
2002-09-25 07:18:23 51°14.385 2°54.8 275.3 11 268.3 8.7
2002-09-25 07:18:29 51°14.384 2°54.77 275.2 11.2 267.6 8.8
2002-09-25 07:18:34 51°14.383 2°54.745 274 11.5 266.7 8.8
2002-09-25 07:18:39 51°14.383 2°54.719 275.2 11.7 267 8.9
2002-09-25 07:18:44 51°14.382 2°54.692 275.5 12 267.6 8.8
2002-09-25 07:18:49 51°14.381 2°54.664 275.2 12.3 267.4 8.8
2002-09-25 07:18:54 51°14.38 2°54.636 275.3 12.6 267.4 8.8
2002-09-25 07:18:59 51°14.379 2°54.608 275.2 12.9 266.5 8.9
2002-09-25 07:19:03 51°14.377 2°54.584 271 13 265.2 8.7
2002-09-25 07:19:09 51°14.373 2°54.549 266 13.3 261 8.7
2002-09-25 07:19:14 51°14.369 2°54.52 262.8 13.5 257.6 8.7
2002-09-25 07:19:19 51°14.364 2°54.491 260.2 13.7 255.4 8.6
2002-09-25 07:19:24 51°14.359 2°54.461 259.8 13.8 254.6 8.6
2002-09-25 07:19:29 51°14.354 2°54.432 261.2 13.9 254.7 8.6
2002-09-25 07:19:39 51°14.345 2°54.372 261.8 13.9 256.7 8.4
2002-09-25 07:19:43 51°14.34 2°54.348 262.2 14 255.9 8.4
2002-09-25 07:19:50 51°14.334 2°54.305 261 14.1 255.7 8.3
2002-09-25 07:19:54 51°14.329 2°54.281 261.3 14.2 254.8 8.1
2002-09-25 07:19:59 51°14.325 2°54.251 262 14.2 255.6 8.1
2002-09-25 07:20:04 51°14.319 2°54.22 261.2 14.2 255.1 8.1
2002-09-25 07:20:09 51°14.315 2°54.19 261.3 14.2 255.2 8.1
2002-09-25 07:20:14 51°14.309 2°54.159 260 14.3 254.4 8.2
2002-09-25 07:20:19 51°14.304 2°54.129 259.8 14.3 253.8 8.3
2002-09-25 07:20:22 51°14.301 2°54.111 259.5 14.3 254.3 8.2
2002-09-25 07:20:29 51°14.293 2°54.068 259 14.3 254.2 8.3
2002-09-25 07:20:34 51°14.287 2°54.038 258.7 14.4 253.2 8.3
2002-09-25 07:20:39 51°14.281 2°54.007 259.5 14.4 253.8 8.3
2002-09-25 07:20:44 51°14.275 2°53.977 259.3 14.4 253 8.4
2002-09-25 07:20:50 51°14.268 2°53.94 257.8 14.4 252.4 8.3
2002-09-25 07:20:54 51°14.264 2°53.916 259.5 14.4 253.7 8.3
2002-09-25 07:20:59 51°14.258 2°53.885 259.8 14.4 253.8 8.2
2002-09-25 07:21:05 51°14.252 2°53.848 260 14.4 254.7 8.1
2002-09-25 07:21:09 51°14.248 2°53.824 261 14.4 254.4 8.2
2002-09-25 07:21:13 51°14.243 2°53.799 261.2 14.5 254.2 8.3
2002-09-25 07:21:18 51°14.238 2°53.768 260.2 14.5 253.5 8.5
2002-09-25 07:21:24 51°14.231 2°53.731 258 14.5 253.5 8.6
2002-09-25 07:21:29 51°14.224 2°53.701 256.5 14.6 251 8.8
2002-09-25 07:21:34 51°14.216 2°53.671 253.7 14.5 249.8 8.7
2002-09-25 07:21:39 51°14.208 2°53.641 252 14.6 247.4 8.7
2002-09-25 07:21:43 51°14.202 2°53.617 250.3 14.7 246.5 8.7
2002-09-25 07:21:49 51°14.191 2°53.582 249.2 14.8 245.1 8.7
2002-09-25 07:21:55 51°14.179 2°53.548 247.5 14.7 243 8.8
2002-09-25 07:21:59 51°14.172 2°53.525 245.2 14.6 241.8 8.8
2002-09-25 07:22:02 51°14.165 2°53.508 244.8 14.8 240.5 8.7
2002-09-25 07:22:09 51°14.151 2°53.468 245.7 14.8 241.1 8.6
2002-09-25 07:22:14 51°14.141 2°53.44 244.3 14.8 240 8.6
2002-09-25 07:22:19 51°14.131 2°53.411 244.8 14.8 240.8 8.6
2002-09-25 07:22:23 51°14.124 2°53.388 244.8 14.7 241.4 8.7
2002-09-25 07:22:29 51°14.111 2°53.354 244.5 14.8 240.4 8.8
2002-09-25 07:22:34 51°14.102 2°53.325 244.7 14.8 241.4 8.9
2002-09-25 07:22:38 51°14.092 2°53.304 242.2 14.9 238.2 9
2002-09-25 07:22:43 51°14.084 2°53.273 245 14.8 241.8 8.8
2002-09-25 07:22:49 51°14.07 2°53.241 243.5 14.8 239.4 9
2002-09-25 07:22:54 51°14.062 2°53.21 245.3 14.9 242.2 9
2002-09-25 07:22:59 51°14.051 2°53.182 245.5 14.9 241 9
2002-09-25 07:23:05 51°14.039 2°53.148 244.3 14.8 241.2 9
2002-09-25 07:23:10 51°14.03 2°53.119 244.7 14.8 239.4 9
2002-09-25 07:23:14 51°14.02 2°53.098 242.2 14.8 239.2 9
2002-09-25 07:23:19 51°14.011 2°53.068 245.2 14.8 241 9.1
2002-09-25 07:23:25 51°13.998 2°53.035 245.3 14.8 240 9.2
2002-09-25 07:23:30 51°13.989 2°53.006 243.7 14.9 240 9.3
2002-09-25 07:23:34 51°13.98 2°52.984 244.7 14.8 241.1 9.3
2002-09-25 07:23:40 51°13.968 2°52.949 243.3 14.8 239.6 9.4
2002-09-25 07:23:45 51°13.958 2°52.92 246.2 14.9 241.5 9.4
2002-09-25 07:23:50 51°13.947 2°52.893 244.3 14.8 240.7 9.5
2002-09-25 07:23:54 51°13.94 2°52.869 245.3 14.8 240.7 9.5
2002-09-25 07:23:59 51°13.929 2°52.84 245.5 14.9 240.6 9.3
2002-09-25 07:24:05 51°13.918 2°52.806 245.5 14.9 241.2 9.4
2002-09-25 07:24:10 51°13.907 2°52.777 244.2 14.9 239.9 9.3
2002-09-25 07:24:15 51°13.898 2°52.747 246 15 241 9.3
2002-09-25 07:24:19 51°13.889 2°52.724 245.8 15 241.1 9.4
2002-09-25 07:24:25 51°13.878 2°52.689 245.8 14.8 241.8 9.4
2002-09-25 07:24:30 51°13.867 2°52.661 245.2 14.9 240.4 9.3
2002-09-25 07:24:35 51°13.859 2°52.631 246.8 15 242.1 9.4
2002-09-25 07:24:39 51°13.85 2°52.609 246 15 241.2 9.2
2002-09-25 07:24:45 51°13.838 2°52.574 244.7 14.8 241.3 9.5
2002-09-25 07:24:50 51°13.829 2°52.545 245.7 14.9 241.1 9.4
2002-09-25 07:24:55 51°13.819 2°52.516 246.7 14.9 242.3 9.5
2002-09-25 07:24:59 51°13.81 2°52.493 245 14.9 241.2 9.6
2002-09-25 07:25:05 51°13.799 2°52.458 246.5 14.9 241.9 9.6
2002-09-25 07:25:10 51°13.789 2°52.429 245.5 14.9 241.6 9.6
2002-09-25 07:25:15 51°13.779 2°52.4 244.7 15 240.7 9.5
2002-09-25 07:25:20 51°13.769 2°52.37 246.2 15.2 241.4 9.6
2002-09-25 07:25:25 51°13.76 2°52.341 246.5 15.2 242.1 9.5
2002-09-25 07:25:30 51°13.748 2°52.312 242.7 15.1 239.4 9.5
2002-09-25 07:25:35 51°13.739 2°52.282 244.8 15.2 240.6 9.6
2002-09-25 07:25:39 51°13.729 2°52.26 243.7 15.2 239.9 9.5
2002-09-25 07:25:43 51°13.722 2°52.235 243.5 15.4 240.5 9.6
2002-09-25 07:25:50 51°13.707 2°52.194 245.2 15.4 241.2 9.7
2002-09-25 07:25:55 51°13.696 2°52.165 242.7 15.3 239.8 9.7
2002-09-25 07:25:59 51°13.687 2°52.142 242.2 15.3 239.3 9.7
2002-09-25 07:26:05 51°13.675 2°52.106 243.8 15.4 240.6 9.6
2002-09-25 07:26:10 51°13.664 2°52.077 243.8 15.3 240.3 9.7
2002-09-25 07:26:15 51°13.653 2°52.047 241.2 15.3 238.5 9.5
2002-09-25 07:26:19 51°13.644 2°52.023 243.5 15.6 239.6 9.5
2002-09-25 07:26:25 51°13.631 2°51.989 241.8 15.6 238.8 9.3
2002-09-25 07:26:30 51°13.619 2°51.962 239.2 15.2 237.3 9.6
2002-09-25 07:26:35 51°13.607 2°51.932 239.5 15.3 236.1 9.6
2002-09-25 07:26:39 51°13.599 2°51.908 243 15.7 238.9 9.2
2002-09-25 07:26:45 51°13.585 2°51.873 241.3 15.6 238.3 9.5
2002-09-25 07:26:50 51°13.574 2°51.845 241.5 15.3 238.8 9.6
2002-09-25 07:26:54 51°13.565 2°51.821 241.3 15.4 238.4 9.5
2002-09-25 07:26:59 51°13.555 2°51.791 243 15.4 239.8 9.7
2002-09-25 07:27:05 51°13.542 2°51.756 242.8 15.4 239.1 9.7
2002-09-25 07:27:10 51°13.532 2°51.726 245.3 15.4 241.5 9.6
2002-09-25 07:27:15 51°13.52 2°51.698 242.8 15.4 240.6 9.6
2002-09-25 07:27:19 51°13.512 2°51.673 242.8 15.6 239.8 9.6
2002-09-25 07:27:22 51°13.506 2°51.655 243.3 15.5 239.7 9.7
2002-09-25 07:27:30 51°13.488 2°51.609 241.2 15.5 238.1 9.7
2002-09-25 07:27:35 51°13.476 2°51.581 242.3 15.4 239 9.7
2002-09-25 07:27:40 51°13.465 2°51.552 241.3 15.2 238.8 9.7
2002-09-25 07:27:45 51°13.453 2°51.523 240.7 15.3 236.8 9.7
2002-09-25 07:27:50 51°13.443 2°51.493 242 15.4 239.9 9.7
2002-09-25 07:27:54 51°13.434 2°51.469 243 15.6 239.7 9.6
2002-09-25 07:27:59 51°13.424 2°51.439 246.3 15.5 241.7 9.7
2002-09-25 07:28:05 51°13.41 2°51.406 242 15.2 239.2 9.8
2002-09-25 07:28:10 51°13.4 2°51.376 240.7 15.2 238.5 9.8
2002-09-25 07:28:15 51°13.39 2°51.346 243.8 15.4 240.2 9.7
2002-09-25 07:28:20 51°13.379 2°51.316 243 15.5 239.9 9.9
2002-09-25 07:28:25 51°13.368 2°51.287 243.8 15.4 239.8 9.9
2002-09-25 07:28:29 51°13.361 2°51.263 244.5 15.3 240.9 9.9
2002-09-25 07:28:34 51°13.349 2°51.235 241.8 15.2 238.8 9.5
2002-09-25 07:28:39 51°13.339 2°51.204 243.3 15.4 240.3 9.9
2002-09-25 07:28:45 51°13.326 2°51.169 243.3 15.4 240.2 9.9
2002-09-25 07:28:50 51°13.316 2°51.14 243.5 15.3 240.5 10
2002-09-25 07:28:55 51°13.304 2°51.111 242.2 15.3 239.6 9.9
2002-09-25 07:28:59 51°13.297 2°51.086 245 15.5 241.5 9.9
2002-09-25 07:29:05 51°13.284 2°51.051 244.8 15.5 240.7 9.6
2002-09-25 07:29:10 51°13.273 2°51.022 243 15.4 240.4 9.9
2002-09-25 07:29:15 51°13.262 2°50.993 242 15.3 239 9.8
2002-09-25 07:29:19 51°13.253 2°50.969 242.8 15.4 239.3 10
2002-09-25 07:29:25 51°13.239 2°50.936 241.2 15.2 237.9 10.1
2002-09-25 07:29:30 51°13.228 2°50.907 240.3 15.2 237.4 9.9
2002-09-25 07:29:35 51°13.218 2°50.876 244 15.4 239.3 9.8
2002-09-25 07:29:39 51°13.208 2°50.854 242.7 15.6 238.8 9.9
2002-09-25 07:29:45 51°13.196 2°50.818 242.8 15.5 240.6 9.9
2002-09-25 07:29:49 51°13.188 2°50.795 243.2 15.2 239.7 9.9
2002-09-25 07:29:54 51°13.176 2°50.765 243 15.3 238.8 9.7
2002-09-25 07:29:59 51°13.166 2°50.736 243.5 15.4 239.8 9.9
2002-09-25 07:30:05 51°13.154 2°50.7 243.3 15.4 240.7 9.9
2002-09-25 07:30:09 51°13.145 2°50.676 245.3 15.5 240.8 10
2002-09-25 07:30:15 51°13.133 2°50.641 243.8 15.5 241.1 10
2002-09-25 07:30:20 51°13.122 2°50.611 244.8 15.5 240.8 9.8
2002-09-25 07:30:25 51°13.111 2°50.582 244.2 15.4 240 10.1
2002-09-25 07:30:30 51°13.1 2°50.554 242.2 15.2 239.2 9.7
2002-09-25 07:30:35 51°13.088 2°50.525 240.7 15.3 237.1 9.9
2002-09-25 07:30:40 51°13.077 2°50.495 242.3 15.6 238.7 10
2002-09-25 07:30:45 51°13.066 2°50.466 240.3 15.5 238 10.2
2002-09-25 07:30:50 51°13.055 2°50.438 241.2 15.3 238.1 10.2
2002-09-25 07:30:55 51°13.044 2°50.409 241.3 15.2 238.4 10.3
2002-09-25 07:30:59 51°13.034 2°50.387 240.8 15.3 237.6 10.2
2002-09-25 07:31:05 51°13.021 2°50.351 242 15.5 238.5 10.2
2002-09-25 07:31:10 51°13.01 2°50.322 243.3 15.6 239.7 10.2
2002-09-25 07:31:15 51°12.999 2°50.293 241.3 15.4 238.9 10.2
2002-09-25 07:31:19 51°12.991 2°50.269 242.7 15.3 239.3 10.1
2002-09-25 07:31:25 51°12.978 2°50.234 243.3 15.4 239.7 10
2002-09-25 07:31:30 51°12.967 2°50.205 242.2 15.5 238.8 10.1
2002-09-25 07:31:35 51°12.955 2°50.176 241.8 15.5 238.6 10.1
2002-09-25 07:31:39 51°12.946 2°50.152 241.7 15.5 238.8 10.1
2002-09-25 07:31:45 51°12.933 2°50.118 241 15.4 237.6 10.2
2002-09-25 07:31:50 51°12.922 2°50.089 241.8 15.5 238.7 9.9
2002-09-25 07:31:55 51°12.912 2°50.059 243.5 15.5 238.2 10.1
2002-09-25 07:31:59 51°12.901 2°50.038 240.5 15.4 237.6 10.1
2002-09-25 07:32:03 51°12.894 2°50.013 242.7 15.4 240.3 10.1
2002-09-25 07:32:10 51°12.877 2°49.973 242.5 15.4 238.8 10.1
2002-09-25 07:32:15 51°12.867 2°49.943 241.2 15.4 238.5 10.1
2002-09-25 07:32:19 51°12.857 2°49.92 242.5 15.5 238.4 10.2
2002-09-25 07:32:25 51°12.845 2°49.884 243.7 15.5 240.6 10.2
2002-09-25 07:32:30 51°12.834 2°49.855 242.8 15.5 239.5 10.1
2002-09-25 07:32:34 51°12.825 2°49.832 241.8 15.4 239.6 10.4
2002-09-25 07:32:39 51°12.814 2°49.803 241.8 15.3 239.1 10.3
2002-09-25 07:32:43 51°12.805 2°49.78 241.3 15.4 238 10.3
2002-09-25 07:32:50 51°12.79 2°49.737 243.2 15.6 239.6 10.3
2002-09-25 07:32:55 51°12.778 2°49.71 242.3 15.5 239.5 10.3
2002-09-25 07:32:59 51°12.77 2°49.686 241.3 15.4 238.8 10.2
2002-09-25 07:33:05 51°12.756 2°49.651 241.5 15.5 237.7 10.2
2002-09-25 07:33:09 51°12.747 2°49.627 240.8 15.6 237.7 10.2
2002-09-25 07:33:15 51°12.733 2°49.593 241.8 15.5 239.1 10.3
2002-09-25 07:33:19 51°12.723 2°49.57 239.7 15.5 236.5 10.2
2002-09-25 07:33:25 51°12.71 2°49.534 241.8 15.5 239.3 10.2
2002-09-25 07:33:30 51°12.699 2°49.505 241.2 15.6 237.7 10.2
2002-09-25 07:33:35 51°12.687 2°49.477 242.2 15.5 240 10.2
2002-09-25 07:33:39 51°12.678 2°49.454 239.2 15.3 237.2 10.2
2002-09-25 07:33:44 51°12.668 2°49.422 243.7 15.6 240 10.3
2002-09-25 07:33:49 51°12.656 2°49.395 241.8 15.5 238.9 10.4
2002-09-25 07:33:55 51°12.644 2°49.358 242.3 15.4 239.9 10.3
2002-09-25 07:33:59 51°12.635 2°49.335 242.8 15.4 239.5 10.4
2002-09-25 07:34:05 51°12.622 2°49.299 242.3 15.5 239.4 10.4
2002-09-25 07:34:10 51°12.61 2°49.27 241.7 15.6 237.9 10.4
2002-09-25 07:34:15 51°12.6 2°49.241 242 15.6 240.4 10.4
2002-09-25 07:34:19 51°12.59 2°49.218 239.8 15.5 237.2 10.3
2002-09-25 07:34:23 51°12.582 2°49.194 240.8 15.4 238 10.3
2002-09-25 07:34:30 51°12.565 2°49.154 239 15.5 236.9 10.3
2002-09-25 07:34:35 51°12.554 2°49.125 241.3 15.6 238.1 10.3
2002-09-25 07:34:40 51°12.542 2°49.096 240.8 15.6 237.5 10.4
2002-09-25 07:34:45 51°12.53 2°49.068 239.5 15.3 236.7 10.4
2002-09-25 07:34:49 51°12.52 2°49.046 238.3 15.4 235.6 10.2
2002-09-25 07:34:55 51°12.507 2°49.009 240.7 15.6 237.3 10
2002-09-25 07:34:59 51°12.497 2°48.988 241.2 15.5 237.2 10.1
2002-09-25 07:35:05 51°12.483 2°48.955 239.3 15.2 236.7 10.2
2002-09-25 07:35:10 51°12.472 2°48.924 240 15.4 237.2 10.2
2002-09-25 07:35:15 51°12.461 2°48.896 242.7 15.5 238.1 10.3
2002-09-25 07:35:19 51°12.452 2°48.872 242 15.4 239 10.3
2002-09-25 07:35:23 51°12.444 2°48.849 242.7 15.3 239.7 10.3
2002-09-25 07:35:30 51°12.428 2°48.808 242.3 15.4 238.9 10.2
2002-09-25 07:35:35 51°12.417 2°48.78 243 15.4 240.1 10.4
2002-09-25 07:35:40 51°12.406 2°48.751 240.8 15.4 238 10.2
2002-09-25 07:35:45 51°12.395 2°48.721 241.5 15.5 238.2 10.2
2002-09-25 07:35:50 51°12.383 2°48.693 240.5 15.5 238.3 10.3
2002-09-25 07:35:55 51°12.372 2°48.664 240.2 15.4 236.7 10.3
2002-09-25 07:35:59 51°12.362 2°48.641 241 15.4 237.3 10.2
2002-09-25 07:36:02 51°12.355 2°48.624 240 15.4 237.2 10.3
2002-09-25 07:36:10 51°12.337 2°48.579 240 15.4 236.9 10.3
2002-09-25 07:36:15 51°12.325 2°48.551 240.3 15.4 237.5 10.3
2002-09-25 07:36:20 51°12.313 2°48.523 239.5 15.3 236.3 10.2
2002-09-25 07:36:25 51°12.302 2°48.494 239.8 15.3 236.8 10
2002-09-25 07:36:30 51°12.289 2°48.466 238.3 15.4 234.9 10.2
2002-09-25 07:36:34 51°12.282 2°48.442 240.7 15.4 238.2 10
2002-09-25 07:36:39 51°12.269 2°48.414 240 15.4 236.7 10.1
2002-09-25 07:36:45 51°12.258 2°48.378 241.8 15.4 239.4 10
2002-09-25 07:36:50 51°12.245 2°48.351 240.5 15.1 237.6 10.2
2002-09-25 07:36:55 51°12.235 2°48.321 242.2 15.2 238 10.2
2002-09-25 07:36:59 51°12.227 2°48.298 244 15.3 240.4 10.2
2002-09-25 07:37:05 51°12.214 2°48.263 242.8 15.3 239.3 10.2
2002-09-25 07:37:09 51°12.206 2°48.239 243.8 15.4 240 10.1
2002-09-25 07:37:15 51°12.193 2°48.203 242.7 15.4 238.8 10.1
2002-09-25 07:37:20 51°12.182 2°48.175 244 15.3 241.2 10
2002-09-25 07:37:23 51°12.176 2°48.157 243.2 15.2 240.7 10.1
2002-09-25 07:37:30 51°12.161 2°48.116 244 15.3 240 10.3
2002-09-25 07:37:35 51°12.15 2°48.088 242.7 15.3 240.6 10.2
2002-09-25 07:37:39 51°12.142 2°48.065 242.3 15.1 238.5 10.1
2002-09-25 07:37:43 51°12.133 2°48.041 243.5 15.2 239.9 10.1
2002-09-25 07:37:49 51°12.121 2°48.005 245 15.4 241 10.2
2002-09-25 07:37:55 51°12.108 2°47.971 243.7 15.2 240.9 10.2
2002-09-25 07:37:59 51°12.099 2°47.947 243.2 15.3 239.7 10.1
2002-09-25 07:38:05 51°12.088 2°47.911 246.5 15.3 243.4 10.2
2002-09-25 07:38:10 51°12.079 2°47.881 244.5 15.2 241.5 10.2
2002-09-25 07:38:14 51°12.071 2°47.857 246.7 15.3 242.5 10.2
2002-09-25 07:38:19 51°12.061 2°47.827 246 15.4 242.5 10.1
2002-09-25 07:38:24 51°12.051 2°47.798 245.2 15.3 241.6 10.2
2002-09-25 07:38:30 51°12.04 2°47.761 246.3 15.3 243.1 10.2
2002-09-25 07:38:35 51°12.03 2°47.732 246.5 15.4 242.3 10.2
2002-09-25 07:38:39 51°12.022 2°47.708 246.2 15.3 243.1 10.2
2002-09-25 07:38:43 51°12.013 2°47.685 243.5 15.3 240.8 10.2
2002-09-25 07:38:50 51°12.001 2°47.641 247.2 15.4 242.9 10.2
2002-09-25 07:38:55 51°11.99 2°47.613 246.3 15.3 243.7 10.2
2002-09-25 07:38:59 51°11.983 2°47.587 246.7 15.2 242.4 9.9
2002-09-25 07:39:05 51°11.972 2°47.552 249 15.3 244.1 9.9
2002-09-25 07:39:10 51°11.961 2°47.522 245.2 15.2 242.7 9.9
2002-09-25 07:39:15 51°11.952 2°47.49 248.3 15.3 243.9 10
2002-09-25 07:39:19 51°11.945 2°47.466 248 15.3 244.5 10.1
2002-09-25 07:39:23 51°11.937 2°47.442 247.7 15.3 244.2 10.2
2002-09-25 07:39:29 51°11.928 2°47.405 249.5 15.2 245.6 10.2
2002-09-25 07:39:35 51°11.916 2°47.369 247.5 15.2 244.1 10.2
2002-09-25 07:39:40 51°11.909 2°47.338 250.8 15.3 246.4 10.3
2002-09-25 07:39:45 51°11.898 2°47.308 248 15.3 244.4 10.2
2002-09-25 07:39:49 51°11.893 2°47.283 250.8 15.2 247.1 10.2
2002-09-25 07:39:55 51°11.882 2°47.247 249 15.2 245.7 10.4
2002-09-25 07:39:59 51°11.876 2°47.221 251.3 15.2 247.4 10.3
2002-09-25 07:40:04 51°11.867 2°47.191 250.7 15.2 246.8 10.3
2002-09-25 07:40:09 51°11.858 2°47.16 250 15.3 246.1 10.3
2002-09-25 07:40:15 51°11.847 2°47.124 250.8 15.3 246.1 10.3
2002-09-25 07:40:19 51°11.842 2°47.098 250.3 15.2 246.6 10
2002-09-25 07:40:25 51°11.831 2°47.062 250.2 15.1 246 9.9
2002-09-25 07:40:30 51°11.822 2°47.031 250.5 15.3 246.2 10.1
2002-09-25 07:40:35 51°11.815 2°47 251.5 15.3 247.9 10.2
2002-09-25 07:40:39 51°11.808 2°46.975 251.8 15.2 247.5 10.3
2002-09-25 07:40:45 51°11.799 2°46.938 251.7 15.1 248.6 10.3
2002-09-25 07:40:49 51°11.793 2°46.913 251.8 15.4 247.6 10.2
2002-09-25 07:40:55 51°11.783 2°46.876 253.3 15.3 249 10.5
2002-09-25 07:40:59 51°11.776 2°46.851 249.7 15.1 246.6 10.5
2002-09-25 07:41:05 51°11.767 2°46.814 250.5 15.2 246.9 10.4
2002-09-25 07:41:10 51°11.758 2°46.783 250 15.4 246.2 10.4
2002-09-25 07:41:15 51°11.75 2°46.752 250.8 15.3 247.4 10.3
2002-09-25 07:41:19 51°11.743 2°46.727 249.5 15.3 245.9 10.2
2002-09-25 07:41:25 51°11.734 2°46.689 251.3 15.4 247.6 10.4
2002-09-25 07:41:30 51°11.726 2°46.659 251.3 15.3 247 10.5
2002-09-25 07:41:35 51°11.717 2°46.628 251.3 15.3 247.7 10.4
2002-09-25 07:41:39 51°11.711 2°46.603 252.2 15.3 247 10.4
2002-09-25 07:41:45 51°11.701 2°46.566 251.8 15.3 247.5 10.4
2002-09-25 07:41:49 51°11.695 2°46.541 251.2 15.2 247.8 10.4
2002-09-25 07:41:55 51°11.686 2°46.503 252.7 15.3 247.6 10.6
2002-09-25 07:41:59 51°11.679 2°46.478 252.2 15.3 247.8 10.6
2002-09-25 07:42:05 51°11.67 2°46.44 252.8 15.3 248.8 10.7
2002-09-25 07:42:10 51°11.662 2°46.408 251.8 15.4 247.8 10.7
2002-09-25 07:42:15 51°11.656 2°46.377 253.5 15.4 249.5 10.6
2002-09-25 07:42:19 51°11.649 2°46.353 251.7 15.1 248.4 10.5
2002-09-25 07:42:24 51°11.641 2°46.32 253.3 15.3 248.6 10.6
2002-09-25 07:42:30 51°11.632 2°46.283 253.8 15.3 250.2 10.6
2002-09-25 07:42:35 51°11.625 2°46.25 251.5 15.3 246.9 10.5
2002-09-25 07:42:39 51°11.618 2°46.225 254.2 15.3 249.8 10.7
2002-09-25 07:42:43 51°11.613 2°46.2 255 15.2 251.3 10.7
2002-09-25 07:42:50 51°11.601 2°46.156 252.3 15.2 248.8 10.8
2002-09-25 07:42:55 51°11.597 2°46.123 256.2 15.4 250.4 10.8
2002-09-25 07:42:59 51°11.59 2°46.099 256.2 15.2 251.5 10.8
2002-09-25 07:43:03 51°11.585 2°46.073 254.8 15.2 251.3 10.8
2002-09-25 07:43:10 51°11.576 2°46.029 256 15.1 250.8 10.9
2002-09-25 07:43:15 51°11.569 2°45.997 254.2 15.2 250.2 10.8
2002-09-25 07:43:19 51°11.565 2°45.972 256 15.2 251.7 10.8
2002-09-25 07:43:23 51°11.557 2°45.947 253.3 15.3 249.3 10.7
2002-09-25 07:43:30 51°11.549 2°45.902 255.5 15.3 252 10.7
2002-09-25 07:43:35 51°11.541 2°45.871 253.7 15.2 249.5 10.7
2002-09-25 07:43:39 51°11.537 2°45.845 255.8 15.2 251.9 10.8
2002-09-25 07:43:45 51°11.526 2°45.808 252.5 15.2 248.8 10.8
2002-09-25 07:43:49 51°11.522 2°45.782 254.5 15.3 250.9 10.7
2002-09-25 07:43:55 51°11.511 2°45.744 253.3 15.3 249.1 10.7
2002-09-25 07:43:59 51°11.508 2°45.719 255.5 15.3 251.3 10.8
2002-09-25 07:44:05 51°11.497 2°45.683 252.3 15 248.8 10.7
2002-09-25 07:44:09 51°11.492 2°45.657 253.5 15.1 249 10.7
2002-09-25 07:44:14 51°11.484 2°45.626 254 15.2 250.3 10.5
2002-09-25 07:44:19 51°11.477 2°45.594 253.7 15.4 249.1 10.5
2002-09-25 07:44:25 51°11.468 2°45.557 254.5 15.2 250 10.5
2002-09-25 07:44:30 51°11.461 2°45.525 253 15.1 248.9 10.5
2002-09-25 07:44:35 51°11.454 2°45.493 255.2 15.2 250.6 10.7
2002-09-25 07:44:40 51°11.445 2°45.462 254 15.2 249.7 10.9
2002-09-25 07:44:44 51°11.439 2°45.436 253 15.3 249.4 10.9
2002-09-25 07:44:50 51°11.432 2°45.398 255.3 15.3 250.8 11
2002-09-25 07:44:55 51°11.423 2°45.367 253.5 15.3 249.7 10.9
2002-09-25 07:44:59 51°11.42 2°45.34 255.8 15.3 251.6 10.9
2002-09-25 07:45:05 51°11.41 2°45.303 254.5 15.2 250.7 10.8
2002-09-25 07:45:10 51°11.404 2°45.27 254.3 15.4 250.1 10.8
2002-09-25 07:45:15 51°11.397 2°45.239 255.5 15.3 252 10.8
2002-09-25 07:45:19 51°11.391 2°45.214 253.3 15.2 249.5 10.8
2002-09-25 07:45:25 51°11.382 2°45.177 253 15.3 249.5 10.8
2002-09-25 07:45:30 51°11.375 2°45.144 253.2 15.3 249.2 10.8
2002-09-25 07:45:34 51°11.369 2°45.12 253.3 15.3 249.1 10.8
2002-09-25 07:45:39 51°11.362 2°45.088 252.5 15.3 249.1 10.8
2002-09-25 07:45:45 51°11.352 2°45.049 253.3 15.3 249.3 10.8
2002-09-25 07:45:50 51°11.344 2°45.018 252 15.3 248.8 10.7
2002-09-25 07:45:54 51°11.338 2°44.992 253.8 15.3 248.9 10.8
2002-09-25 07:45:59 51°11.332 2°44.96 254 15.3 250.8 10.8
2002-09-25 07:46:05 51°11.322 2°44.922 253.2 15.4 249.4 10.7
2002-09-25 07:46:10 51°11.315 2°44.891 254.5 15.4 250.3 10.7
2002-09-25 07:46:15 51°11.307 2°44.86 251.8 15.3 248.3 10.7
2002-09-25 07:46:19 51°11.301 2°44.835 251 15.2 247.8 10.4
2002-09-25 07:46:22 51°11.296 2°44.816 251.2 15.5 247.5 10.7
2002-09-25 07:46:30 51°11.284 2°44.765 252.8 15.5 248.9 10.6
2002-09-25 07:46:35 51°11.275 2°44.735 250.7 15.3 247.3 10.7
2002-09-25 07:46:39 51°11.27 2°44.708 253.3 15.4 249.6 10.6
2002-09-25 07:46:44 51°11.262 2°44.677 253.7 15.3 249.1 10.6
2002-09-25 07:46:50 51°11.252 2°44.64 251.3 15.2 247.8 10.6
2002-09-25 07:46:55 51°11.245 2°44.607 252.8 15.5 248.2 10.5
2002-09-25 07:46:59 51°11.24 2°44.581 254 15.5 249.9 10.6
2002-09-25 07:47:03 51°11.233 2°44.556 253.2 15.3 249.8 10.7
2002-09-25 07:47:09 51°11.223 2°44.519 251.3 15.2 247.5 10.6
2002-09-25 07:47:15 51°11.214 2°44.48 253.5 15.4 249 10.5
2002-09-25 07:47:20 51°11.208 2°44.449 253.5 15.3 250 10.6
2002-09-25 07:47:23 51°11.202 2°44.431 250.2 15.2 247.3 10.5
2002-09-25 07:47:30 51°11.193 2°44.385 254.3 15.3 250.8 10.5
2002-09-25 07:47:35 51°11.184 2°44.355 252.8 15.2 249 10.6
2002-09-25 07:47:39 51°11.179 2°44.33 251 15.1 248.7 10.7
2002-09-25 07:47:43 51°11.171 2°44.306 249.7 15.2 246 10.8
2002-09-25 07:47:50 51°11.161 2°44.261 251.5 15.4 248.7 10.7
2002-09-25 07:47:55 51°11.152 2°44.231 251.3 15.3 247.9 10.8
2002-09-25 07:47:59 51°11.148 2°44.205 253.3 15.1 249.8 10.7
2002-09-25 07:48:05 51°11.139 2°44.167 253.7 15.3 250.7 10.6
2002-09-25 07:48:10 51°11.134 2°44.135 257 15.3 252.7 10.6
2002-09-25 07:48:15 51°11.127 2°44.103 257.8 15.3 253 10.6
2002-09-25 07:48:19 51°11.123 2°44.076 257.2 15.2 253.6 10.6
2002-09-25 07:48:23 51°11.119 2°44.051 258.3 15.1 254.2 10.7
2002-09-25 07:48:30 51°11.11 2°44.006 258 15.2 253.6 10.8
2002-09-25 07:48:35 51°11.105 2°43.974 258.5 15.2 255 10.7
2002-09-25 07:48:39 51°11.099 2°43.948 257 15.2 253 10.6
2002-09-25 07:48:43 51°11.096 2°43.922 258.7 15.1 254 10.6
2002-09-25 07:48:50 51°11.087 2°43.877 256.8 15.3 252.7 10.5
2002-09-25 07:48:55 51°11.081 2°43.845 258.5 15.2 255.4 10.6
2002-09-25 07:48:59 51°11.077 2°43.819 257.5 15.1 253.6 10.6
2002-09-25 07:49:03 51°11.072 2°43.793 258 15.3 254 10.8
2002-09-25 07:49:10 51°11.065 2°43.747 258.8 15.3 255.5 10.7
2002-09-25 07:49:15 51°11.058 2°43.716 259 15.3 254.6 10.9
2002-09-25 07:49:19 51°11.055 2°43.69 258.2 15.1 254.5 10.9
2002-09-25 07:49:23 51°11.049 2°43.664 258.2 15.3 253.8 10.9
2002-09-25 07:49:30 51°11.042 2°43.617 259.5 15.4 254.7 10.9
2002-09-25 07:49:35 51°11.036 2°43.585 258 15.4 254.7 10.8
2002-09-25 07:49:39 51°11.033 2°43.559 259 15.2 255.4 10.8
2002-09-25 07:49:45 51°11.025 2°43.521 258.5 15.2 253.3 10.8
2002-09-25 07:49:50 51°11.02 2°43.487 261 15.4 256 10.8
2002-09-25 07:49:54 51°11.015 2°43.461 258.7 15.4 254.7 10.9
2002-09-25 07:49:58 51°11.011 2°43.435 258 15.4 254.6 10.9
2002-09-25 07:50:05 51°11.002 2°43.389 256.8 15.3 253.9 10.9
2002-09-25 07:50:10 51°10.997 2°43.357 258.3 15.3 254.3 10.8
2002-09-25 07:50:15 51°10.992 2°43.323 259.3 15.4 254.7 10.9
2002-09-25 07:50:19 51°10.986 2°43.298 258.5 15.4 254.5 10.9
2002-09-25 07:50:25 51°10.98 2°43.26 256.8 15.2 254.3 10.9
2002-09-25 07:50:30 51°10.975 2°43.227 259.2 15.2 254.8 10.9
2002-09-25 07:50:35 51°10.969 2°43.194 259 15.4 254.4 10.9
2002-09-25 07:50:39 51°10.964 2°43.168 258.7 15.4 254.6 10.9
2002-09-25 07:50:45 51°10.957 2°43.129 257.5 15.4 254 11
2002-09-25 07:50:50 51°10.952 2°43.096 258.8 15.4 255.2 11
2002-09-25 07:50:55 51°10.947 2°43.063 259 15.4 254.8 10.8
2002-09-25 07:50:59 51°10.942 2°43.037 259.2 15.2 255.4 10.7
2002-09-25 07:51:05 51°10.935 2°42.998 257.2 15.2 253.7 10.8
2002-09-25 07:51:09 51°10.93 2°42.972 257.7 15.4 253.6 10.8
2002-09-25 07:51:15 51°10.924 2°42.932 258.5 15.4 255.2 10.8
2002-09-25 07:51:20 51°10.918 2°42.9 259.5 15.5 254.4 10.8
2002-09-25 07:51:23 51°10.916 2°42.88 258.2 15.2 255.5 10.8
2002-09-25 07:51:30 51°10.907 2°42.836 258.5 15 254.2 10.8
2002-09-25 07:51:35 51°10.901 2°42.803 257.5 15.1 254.1 10.8
2002-09-25 07:51:39 51°10.896 2°42.777 258.2 15.6 253.6 10.8
2002-09-25 07:51:43 51°10.892 2°42.75 259.2 15.6 254.7 10.8
2002-09-25 07:51:50 51°10.884 2°42.706 258.3 15.2 253.9 10.9
2002-09-25 07:51:55 51°10.877 2°42.675 256.5 14.9 253.2 10.9
2002-09-25 07:51:59 51°10.873 2°42.648 257.2 15.1 253.6 10.8
2002-09-25 07:52:05 51°10.866 2°42.609 258 15.4 254.3 10.8
2002-09-25 07:52:10 51°10.86 2°42.576 259 15.5 254.5 10.8
2002-09-25 07:52:15 51°10.855 2°42.544 258 15.4 255.2 11.1
2002-09-25 07:52:19 51°10.851 2°42.518 259 15 255.1 11.1
2002-09-25 07:52:25 51°10.842 2°42.48 255.5 15 252.4 11.1
2002-09-25 07:52:30 51°10.837 2°42.447 257.8 15.3 254.5 11
2002-09-25 07:52:35 51°10.831 2°42.414 258.2 15.4 254 11
2002-09-25 07:52:39 51°10.827 2°42.388 258 15.4 254.5 11.1
2002-09-25 07:52:45 51°10.821 2°42.35 258.7 15.2 255 11.1
2002-09-25 07:52:50 51°10.814 2°42.318 257 15 252.8 11
2002-09-25 07:52:54 51°10.81 2°42.291 258.2 15.3 254.9 10.9
2002-09-25 07:52:58 51°10.805 2°42.265 258.8 15.4 254.9 10.9
2002-09-25 07:53:02 51°10.801 2°42.239 257.8 15.4 254.2 11
2002-09-25 07:53:10 51°10.791 2°42.188 258 15.2 254.3 11
2002-09-25 07:53:15 51°10.785 2°42.156 257.5 15.2 253.4 10.8
2002-09-25 07:53:19 51°10.782 2°42.13 258.3 15.1 254.8 10.8
2002-09-25 07:53:22 51°10.777 2°42.111 258.7 15.3 254.2 10.8
2002-09-25 07:53:30 51°10.769 2°42.059 259.3 15.2 255.4 11
2002-09-25 07:53:35 51°10.764 2°42.026 258.2 15.2 254.4 11
2002-09-25 07:53:39 51°10.759 2°42 258.8 15.3 254.7 11.2
2002-09-25 07:53:45 51°10.752 2°41.961 258.2 15.3 254.5 11.2
2002-09-25 07:53:50 51°10.747 2°41.929 257.7 15.2 254.5 11.1
2002-09-25 07:53:55 51°10.74 2°41.896 257.3 15.3 253.1 11.2
2002-09-25 07:53:59 51°10.738 2°41.87 260.7 15.4 256.8 11.2
2002-09-25 07:54:04 51°10.73 2°41.838 257.8 15.3 253.8 11
2002-09-25 07:54:10 51°10.724 2°41.798 259 15.3 255.4 11
2002-09-25 07:54:14 51°10.72 2°41.772 259.3 15.4 254.5 11
2002-09-25 07:54:19 51°10.714 2°41.74 258.3 15.4 254.4 11
2002-09-25 07:54:25 51°10.707 2°41.701 257.8 15.2 253.8 11.1
2002-09-25 07:54:30 51°10.701 2°41.67 257.2 15.1 253.6 11.1
2002-09-25 07:54:35 51°10.696 2°41.637 257.3 15.2 253.1 11.2
2002-09-25 07:54:39 51°10.69 2°41.611 258.3 15.2 254 11.2
2002-09-25 07:54:45 51°10.685 2°41.572 257.5 15.3 253.9 11.2
2002-09-25 07:54:50 51°10.677 2°41.54 258.7 15.4 254.1 11.2
2002-09-25 07:54:55 51°10.673 2°41.507 259.2 15.4 254.9 11.2
2002-09-25 07:54:59 51°10.667 2°41.481 258 15.3 253.9 11.2
2002-09-25 07:55:05 51°10.662 2°41.442 258.3 15.2 255.2 11.2
2002-09-25 07:55:10 51°10.654 2°41.41 257.2 15.2 253.1 11.1
2002-09-25 07:55:15 51°10.648 2°41.378 255.2 15.4 252.6 11.1
2002-09-25 07:55:19 51°10.645 2°41.35 259.8 15.5 254.6 11
2002-09-25 07:55:22 51°10.64 2°41.332 257 15.4 253.1 10.8
2002-09-25 07:55:30 51°10.631 2°41.28 256.8 15.3 253.4 10.9
2002-09-25 07:55:35 51°10.626 2°41.247 259.3 15.4 252.8 10.8
2002-09-25 07:55:39 51°10.62 2°41.222 257.7 15.3 253.9 11
2002-09-25 07:55:44 51°10.615 2°41.188 257 15.4 254.2 11
2002-09-25 07:55:50 51°10.607 2°41.149 258.5 15.5 254 11.2
2002-09-25 07:55:55 51°10.602 2°41.116 257.8 15.4 254.9 11.4
2002-09-25 07:56:00 51°10.596 2°41.083 257.7 15.5 254 11.4
2002-09-25 07:56:05 51°10.591 2°41.05 259.7 15.5 255.6 11.4
2002-09-25 07:56:10 51°10.585 2°41.018 258 15.4 254.8 11.2
2002-09-25 07:56:15 51°10.579 2°40.984 258.5 15.4 254.8 11.3
2002-09-25 07:56:19 51°10.576 2°40.957 260.5 15.7 256.3 11.4
2002-09-25 07:56:25 51°10.569 2°40.918 258.7 15.6 255.6 11.4
2002-09-25 07:56:30 51°10.563 2°40.884 258.2 15.6 255.1 11.4
2002-09-25 07:56:35 51°10.557 2°40.852 259.7 15.6 255.2 11.2
2002-09-25 07:56:40 51°10.551 2°40.819 257.8 15.4 254.5 11
2002-09-25 07:56:45 51°10.547 2°40.785 258.3 15.4 253.3 11.1
2002-09-25 07:56:50 51°10.539 2°40.754 257.7 15.4 253.6 11.1
2002-09-25 07:56:55 51°10.534 2°40.721 257.3 15.4 254.7 11.2
2002-09-25 07:56:59 51°10.53 2°40.694 258.2 15.4 254.4 11.2
2002-09-25 07:57:05 51°10.523 2°40.655 257.7 15.4 253.4 11.2
2002-09-25 07:57:10 51°10.517 2°40.623 258.5 15.3 255 11.3
2002-09-25 07:57:15 51°10.512 2°40.59 257.7 15.3 254 11.4
2002-09-25 07:57:19 51°10.506 2°40.564 258.3 15.3 254.3 11.5
2002-09-25 07:57:25 51°10.499 2°40.525 257.2 15.4 253.6 11.6
2002-09-25 07:57:29 51°10.495 2°40.499 258 15.4 253.9 11.7
2002-09-25 07:57:35 51°10.487 2°40.46 257.2 15.4 254.9 11.7
2002-09-25 07:57:40 51°10.483 2°40.427 257.8 15.4 255 11.7
2002-09-25 07:57:45 51°10.476 2°40.395 258.2 15.3 253.6 11.7
2002-09-25 07:57:50 51°10.47 2°40.363 257.2 15.3 253.4 11.7
2002-09-25 07:57:54 51°10.465 2°40.337 257.7 15.3 252.9 11.7
2002-09-25 07:57:59 51°10.459 2°40.305 257.7 15.3 253.8 11.8
2002-09-25 07:58:05 51°10.453 2°40.265 257.2 15.4 253.9 11.8
2002-09-25 07:58:09 51°10.447 2°40.239 258.5 15.4 253.9 11.8
2002-09-25 07:58:15 51°10.441 2°40.2 258.2 15.4 254.2 11.9
2002-09-25 07:58:19 51°10.436 2°40.174 257.3 15.4 253.6 12
2002-09-25 07:58:25 51°10.429 2°40.134 258 15.4 255.2 12.1
2002-09-25 07:58:30 51°10.424 2°40.102 259.2 15.4 254.3 12.1
2002-09-25 07:58:35 51°10.417 2°40.07 257.3 15.3 254.8 12.1
2002-09-25 07:58:39 51°10.413 2°40.044 257.3 15.3 253.6 12.2
2002-09-25 07:58:45 51°10.406 2°40.005 258.2 15.3 254.9 12.1
2002-09-25 07:58:50 51°10.401 2°39.972 258 15.4 254.2 12.2
2002-09-25 07:58:55 51°10.394 2°39.94 258.2 15.4 255.2 12.2
2002-09-25 07:58:59 51°10.391 2°39.913 258.2 15.3 254.8 12.3
2002-09-25 07:59:05 51°10.383 2°39.875 257.8 15.3 253.9 12.3
2002-09-25 07:59:10 51°10.38 2°39.842 260 15.2 256.2 12.3
2002-09-25 07:59:15 51°10.372 2°39.809 257.8 15.3 254.2 12.3
2002-09-25 07:59:19 51°10.369 2°39.783 258.8 15.3 255.4 12.5
2002-09-25 07:59:25 51°10.362 2°39.744 258.8 15.3 254.6 12.5
2002-09-25 07:59:30 51°10.357 2°39.711 259.3 15.4 255 12.5
2002-09-25 07:59:34 51°10.352 2°39.685 258.8 15.4 255.8 12.5
2002-09-25 07:59:39 51°10.348 2°39.652 259.7 15.4 256.1 12.5
2002-09-25 07:59:45 51°10.34 2°39.613 258.2 15.3 254.4 12.6
2002-09-25 07:59:50 51°10.335 2°39.58 259.2 15.4 255.5 12.6
2002-09-25 07:59:55 51°10.329 2°39.548 259.2 15.4 255.7 12.8
2002-09-25 07:59:59 51°10.325 2°39.521 258.8 15.4 254.7 12.9
2002-09-25 08:00:05 51°10.319 2°39.482 259.5 15.4 255.6 12.9
2002-09-25 08:00:10 51°10.312 2°39.45 256.8 15.3 253 13
2002-09-25 08:00:14 51°10.309 2°39.424 258.2 15.3 255 13.3
2002-09-25 08:00:19 51°10.301 2°39.392 256.2 15.3 252.8 13.2
2002-09-25 08:00:25 51°10.297 2°39.352 260 15.3 254.9 13.3
2002-09-25 08:00:30 51°10.288 2°39.321 256.5 15.2 253.3 13.4
2002-09-25 08:00:35 51°10.286 2°39.287 259.7 15.2 254.7 13.4
2002-09-25 08:00:39 51°10.279 2°39.263 257.3 15.1 254 13.4
2002-09-25 08:00:45 51°10.274 2°39.224 258.2 15.1 255.3 13.6
2002-09-25 08:00:50 51°10.268 2°39.191 259.7 15.2 255.3 13.7
2002-09-25 08:00:55 51°10.265 2°39.158 260.3 15.2 255.8 13.6
2002-09-25 08:00:59 51°10.258 2°39.133 258.5 15.2 254.5 13.6
2002-09-25 08:01:05 51°10.254 2°39.093 260.3 15.2 256.9 13.7
2002-09-25 08:01:10 51°10.247 2°39.061 259.8 15.3 255.1 14.1
2002-09-25 08:01:15 51°10.244 2°39.028 260.3 15.3 256.8 14.1
2002-09-25 08:01:19 51°10.239 2°39.002 259.8 15.3 256.4 13.9
2002-09-25 08:01:25 51°10.234 2°38.963 260.7 15.2 256.8 13.9
2002-09-25 08:01:29 51°10.229 2°38.937 260.3 15.2 256.1 14.1
2002-09-25 08:01:35 51°10.224 2°38.898 261.2 15.2 255.9 14.2
2002-09-25 08:01:39 51°10.219 2°38.872 260 15.2 255.9 14
2002-09-25 08:01:45 51°10.213 2°38.832 260.3 15.3 255.3 13.9
2002-09-25 08:01:50 51°10.208 2°38.8 260.3 15.3 256.6 13.9
2002-09-25 08:01:55 51°10.203 2°38.767 260.7 15.3 255.1 14.1
2002-09-25 08:01:59 51°10.199 2°38.741 261.8 15.3 257 13.8
2002-09-25 08:02:05 51°10.194 2°38.7 260.8 15.4 256.2 13.9
2002-09-25 08:02:09 51°10.19 2°38.674 262.7 15.4 258.2 14.2
2002-09-25 08:02:15 51°10.184 2°38.634 261.3 15.4 257.5 14.3
2002-09-25 08:02:19 51°10.18 2°38.609 262.3 15.3 257 14.2
2002-09-25 08:02:25 51°10.174 2°38.57 260.8 15.2 256.5 14.5
2002-09-25 08:02:30 51°10.17 2°38.536 260.5 15.4 255.7 14.6
2002-09-25 08:02:35 51°10.164 2°38.504 260.8 15.4 257.1 14.8
2002-09-25 08:02:39 51°10.16 2°38.477 260 15.4 255.6 14.8
2002-09-25 08:02:45 51°10.154 2°38.437 261.5 15.4 257.5 14.8
2002-09-25 08:02:50 51°10.15 2°38.404 261.2 15.3 256.7 14.9
2002-09-25 08:02:55 51°10.144 2°38.372 260.7 15.3 256.3 14.9
2002-09-25 08:02:59 51°10.14 2°38.345 260.3 15.5 256 14.9
2002-09-25 08:03:05 51°10.134 2°38.305 261.7 15.5 256.9 14.7
2002-09-25 08:03:10 51°10.129 2°38.272 259.8 15.3 255.8 15
2002-09-25 08:03:15 51°10.125 2°38.239 261 15.4 256.1 14.7
2002-09-25 08:03:19 51°10.121 2°38.213 260.3 15.3 256.8 14.8
2002-09-25 08:03:25 51°10.115 2°38.173 259.8 15.4 255.2 15
2002-09-25 08:03:30 51°10.11 2°38.14 262.2 15.4 257.1 15
2002-09-25 08:03:35 51°10.104 2°38.107 260.7 15.4 256.4 15
2002-09-25 08:03:39 51°10.101 2°38.081 261.7 15.4 257.2 14.5
2002-09-25 08:03:45 51°10.095 2°38.041 261 15.4 257.5 15.2
2002-09-25 08:03:50 51°10.091 2°38.008 261.3 15.3 257.2 15.4
2002-09-25 08:03:55 51°10.085 2°37.975 260.3 15.3 255.5 15.4
2002-09-25 08:04:00 51°10.081 2°37.942 262.3 15.4 257.4 15.5
2002-09-25 08:04:02 51°10.08 2°37.929 261 15.3 256.2 15.5
2002-09-25 08:04:10 51°10.073 2°37.876 262.2 15.3 257.9 15.5
2002-09-25 08:04:15 51°10.067 2°37.843 262.8 15.5 257.1 15.5
2002-09-25 08:04:19 51°10.066 2°37.817 263.8 15.3 260.1 15.6
2002-09-25 08:04:25 51°10.059 2°37.777 261.3 15.3 257.3 15.7
2002-09-25 08:04:29 51°10.057 2°37.75 265.7 15.4 260.2 15.7
2002-09-25 08:04:35 51°10.051 2°37.711 264 15.3 260.7 15.7
2002-09-25 08:04:40 51°10.048 2°37.677 263 15.3 258.5 15.8
2002-09-25 08:04:45 51°10.044 2°37.644 264.2 15.2 259.4 15.9
2002-09-25 08:04:50 51°10.04 2°37.612 262.7 15.1 258.6 16
2002-09-25 08:04:55 51°10.036 2°37.579 264 15.2 259.3 16
2002-09-25 08:04:59 51°10.033 2°37.553 264 15.2 259.3 16
2002-09-25 08:05:05 51°10.027 2°37.513 263.2 15.2 258.6 16.2
2002-09-25 08:05:10 51°10.024 2°37.48 264.5 15.3 259.6 16.2
2002-09-25 08:05:15 51°10.019 2°37.447 262.5 15.3 258.4 16.2
2002-09-25 08:05:19 51°10.017 2°37.421 263.5 15.2 258.8 16.2
2002-09-25 08:05:25 51°10.011 2°37.381 261.7 15.1 258.2 16.3
2002-09-25 08:05:30 51°10.008 2°37.347 263.7 15.4 259.1 16.2
2002-09-25 08:05:35 51°10.004 2°37.314 265 15.5 260.4 16.2
2002-09-25 08:05:39 51°10.001 2°37.287 264.3 15.3 260.3 16.2
2002-09-25 08:05:45 51°9.996 2°37.248 263.2 15.3 259 16.2
2002-09-25 08:05:50 51°9.992 2°37.213 263.7 15.4 259.6 16.2
2002-09-25 08:05:55 51°9.988 2°37.18 263.7 15.6 259.1 16.2
2002-09-25 08:06:00 51°9.985 2°37.147 265.5 15.3 261.1 16.1
2002-09-25 08:06:05 51°9.982 2°37.115 264.7 15.2 260.5 16.1
2002-09-25 08:06:10 51°9.978 2°37.081 265 15.2 261 16.6
2002-09-25 08:06:14 51°9.976 2°37.054 265.5 15.3 261.2 16.5
2002-09-25 08:06:19 51°9.972 2°37.021 264 15.3 260.2 16.4
2002-09-25 08:06:25 51°9.968 2°36.982 263.3 15.2 259.8 16.4
2002-09-25 08:06:30 51°9.964 2°36.949 264.2 15.2 259.4 16.5
2002-09-25 08:06:35 51°9.959 2°36.915 262.8 15.3 259.6 16.4
2002-09-25 08:06:39 51°9.959 2°36.888 266.8 15.3 262.2 16.2
2002-09-25 08:06:45 51°9.954 2°36.849 265.5 15.3 260.9 16.2
2002-09-25 08:06:50 51°9.952 2°36.815 266.3 15.2 262.7 16.1
2002-09-25 08:06:55 51°9.949 2°36.782 268.2 15.3 260.9 16.3
2002-09-25 08:06:59 51°9.947 2°36.755 266.3 15.2 263.2 16.1
2002-09-25 08:07:05 51°9.944 2°36.716 267.8 15.1 263.2 16.4
2002-09-25 08:07:10 51°9.94 2°36.683 267 15 262.8 16.4
2002-09-25 08:07:15 51°9.939 2°36.649 267.8 15.1 262.2 16.1
2002-09-25 08:07:19 51°9.937 2°36.622 270.2 15.2 265.1 16.1
2002-09-25 08:07:25 51°9.936 2°36.583 270.7 15.1 264.8 16.6
2002-09-25 08:07:30 51°9.934 2°36.55 271.5 15 265.9 16.4
2002-09-25 08:07:35 51°9.933 2°36.517 272.3 15 267.1 16.5
2002-09-25 08:07:39 51°9.934 2°36.49 274.5 15.1 269.1 16
2002-09-25 08:07:45 51°9.933 2°36.45 274.5 15 269.1 16.3
2002-09-25 08:07:50 51°9.934 2°36.417 276.7 15.1 270 16.4
2002-09-25 08:07:55 51°9.934 2°36.384 277.3 15.1 271.7 16.3
2002-09-25 08:07:59 51°9.935 2°36.357 277.3 15 271.9 16.3
2002-09-25 08:08:05 51°9.936 2°36.318 278.5 15 272.1 16.5
2002-09-25 08:08:10 51°9.938 2°36.284 278.8 15.1 272.9 16.6
2002-09-25 08:08:15 51°9.939 2°36.251 280.3 15.1 274.2 16.6
2002-09-25 08:08:19 51°9.941 2°36.225 278.8 15 273.3 16.6
2002-09-25 08:08:25 51°9.943 2°36.185 279.7 15 274.1 16.5
2002-09-25 08:08:30 51°9.945 2°36.152 281 15.1 274.6 16.6
2002-09-25 08:08:34 51°9.948 2°36.126 283.5 15.1 277 16.7
2002-09-25 08:08:39 51°9.951 2°36.093 286.5 15 279 16.8
2002-09-25 08:08:45 51°9.957 2°36.055 288.5 15 281.1 16.7
2002-09-25 08:08:50 51°9.961 2°36.023 290.2 14.9 282.5 16.7
2002-09-25 08:08:54 51°9.967 2°35.999 293.5 14.8 285.6 16.5
2002-09-25 08:08:59 51°9.973 2°35.968 296.2 14.7 288.1 16.5
2002-09-25 08:09:05 51°9.982 2°35.932 297.8 14.7 289.9 16.4
2002-09-25 08:09:10 51°9.991 2°35.903 300.7 14.6 292.4 16.4
2002-09-25 08:09:15 51°9.999 2°35.873 301.5 14.6 293.3 16.2
2002-09-25 08:09:19 51°10.007 2°35.85 304.5 14.6 295.5 16
2002-09-25 08:09:25 51°10.017 2°35.816 305.2 14.5 296.6 15.7